sensor_id;sensor_type;location;lat;lon;timestamp;pressure;altitude;pressure_sealevel;temperature;humidity
58209;BME280;44006;52.028;4.696;2022-08-03T00:01:02;101478.59;;;20.65;96.13
58209;BME280;44006;52.028;4.696;2022-08-03T00:03:27;101470.78;;;20.62;96.91
58209;BME280;44006;52.028;4.696;2022-08-03T00:05:53;101471.66;;;20.62;96.76
58209;BME280;44006;52.028;4.696;2022-08-03T00:08:18;101469.31;;;20.59;97.27
58209;BME280;44006;52.028;4.696;2022-08-03T00:10:44;101461.28;;;20.58;97.13
58209;BME280;44006;52.028;4.696;2022-08-03T00:13:09;101470.88;;;20.55;96.70
58209;BME280;44006;52.028;4.696;2022-08-03T00:15:41;101461.97;;;20.53;97.76
58209;BME280;44006;52.028;4.696;2022-08-03T00:18:07;101470.50;;;20.51;97.86
58209;BME280;44006;52.028;4.696;2022-08-03T00:20:33;101460.28;;;20.52;97.93
58209;BME280;44006;52.028;4.696;2022-08-03T00:22:59;101458.59;;;20.51;97.75
58209;BME280;44006;52.028;4.696;2022-08-03T00:25:24;101465.81;;;20.52;98.09
58209;BME280;44006;52.028;4.696;2022-08-03T00:27:50;101461.59;;;20.49;98.05
58209;BME280;44006;52.028;4.696;2022-08-03T00:30:15;101460.75;;;20.49;98.11
58209;BME280;44006;52.028;4.696;2022-08-03T00:32:40;101451.03;;;20.46;98.70
58209;BME280;44006;52.028;4.696;2022-08-03T00:35:06;101463.75;;;20.47;98.60
58209;BME280;44006;52.028;4.696;2022-08-03T00:37:32;101462.06;;;20.46;98.83
58209;BME280;44006;52.028;4.696;2022-08-03T00:39:57;101456.56;;;20.46;98.46
58209;BME280;44006;52.028;4.696;2022-08-03T00:42:23;101450.16;;;20.46;98.96
58209;BME280;44006;52.028;4.696;2022-08-03T00:44:48;101456.78;;;20.45;98.97
58209;BME280;44006;52.028;4.696;2022-08-03T00:47:13;101456.41;;;20.41;98.98
58209;BME280;44006;52.028;4.696;2022-08-03T00:49:39;101452.56;;;20.42;99.22
58209;BME280;44006;52.028;4.696;2022-08-03T00:52:07;101454.09;;;20.38;99.76
58209;BME280;44006;52.028;4.696;2022-08-03T00:54:35;101450.66;;;20.43;99.11
58209;BME280;44006;52.028;4.696;2022-08-03T00:57:02;101454.72;;;20.40;99.25
58209;BME280;44006;52.028;4.696;2022-08-03T00:59:28;101446.28;;;20.35;100.00
58209;BME280;44006;52.028;4.696;2022-08-03T01:01:53;101443.53;;;20.35;100.00
58209;BME280;44006;52.028;4.696;2022-08-03T01:04:19;101455.41;;;20.35;99.83
58209;BME280;44006;52.028;4.696;2022-08-03T01:07:02;101439.72;;;20.36;100.00
58209;BME280;44006;52.028;4.696;2022-08-03T01:09:48;101441.34;;;20.25;100.00
58209;BME280;44006;52.028;4.696;2022-08-03T01:15:21;101436.19;;;20.29;100.00
58209;BME280;44006;52.028;4.696;2022-08-03T01:18:08;101431.50;;;20.29;100.00
58209;BME280;44006;52.028;4.696;2022-08-03T01:20:36;101431.75;;;20.28;100.00
58209;BME280;44006;52.028;4.696;2022-08-03T01:29:18;101435.19;;;20.23;100.00
58209;BME280;44006;52.028;4.696;2022-08-03T01:31:54;101431.81;;;20.21;100.00
58209;BME280;44006;52.028;4.696;2022-08-03T01:34:25;101436.50;;;20.21;100.00
58209;BME280;44006;52.028;4.696;2022-08-03T01:36:55;101431.00;;;20.21;100.00
58209;BME280;44006;52.028;4.696;2022-08-03T01:39:23;101433.97;;;20.19;100.00
58209;BME280;44006;52.028;4.696;2022-08-03T01:41:55;101436.97;;;20.17;100.00
58209;BME280;44006;52.028;4.696;2022-08-03T01:44:25;101431.06;;;20.14;100.00
58209;BME280;44006;52.028;4.696;2022-08-03T01:46:56;101431.91;;;20.14;100.00
58209;BME280;44006;52.028;4.696;2022-08-03T01:49:23;101435.81;;;20.07;100.00
58209;BME280;44006;52.028;4.696;2022-08-03T01:51:49;101433.00;;;20.13;100.00
58209;BME280;44006;52.028;4.696;2022-08-03T01:54:17;101437.03;;;20.11;100.00
58209;BME280;44006;52.028;4.696;2022-08-03T01:56:43;101421.81;;;20.08;100.00
58209;BME280;44006;52.028;4.696;2022-08-03T01:59:10;101430.16;;;20.02;100.00
58209;BME280;44006;52.028;4.696;2022-08-03T02:01:37;101429.09;;;20.03;100.00
58209;BME280;44006;52.028;4.696;2022-08-03T02:04:04;101425.69;;;20.00;100.00
58209;BME280;44006;52.028;4.696;2022-08-03T02:06:33;101418.53;;;19.99;100.00
58209;BME280;44006;52.028;4.696;2022-08-03T02:08:59;101422.94;;;20.00;100.00
58209;BME280;44006;52.028;4.696;2022-08-03T02:11:26;101417.06;;;19.97;100.00
58209;BME280;44006;52.028;4.696;2022-08-03T02:13:53;101422.56;;;19.97;100.00
58209;BME280;44006;52.028;4.696;2022-08-03T02:16:21;101413.47;;;19.96;100.00
58209;BME280;44006;52.028;4.696;2022-08-03T02:18:47;101412.69;;;19.89;100.00
58209;BME280;44006;52.028;4.696;2022-08-03T02:21:13;101417.59;;;19.87;100.00
58209;BME280;44006;52.028;4.696;2022-08-03T02:23:39;101415.69;;;19.88;100.00
58209;BME280;44006;52.028;4.696;2022-08-03T02:26:09;101412.94;;;19.88;100.00
58209;BME280;44006;52.028;4.696;2022-08-03T02:28:39;101413.00;;;19.81;100.00
58209;BME280;44006;52.028;4.696;2022-08-03T02:31:11;101413.00;;;19.81;100.00
58209;BME280;44006;52.028;4.696;2022-08-03T02:33:41;101406.66;;;19.80;100.00
58209;BME280;44006;52.028;4.696;2022-08-03T02:36:08;101406.88;;;19.79;100.00
58209;BME280;44006;52.028;4.696;2022-08-03T02:38:38;101400.06;;;19.82;100.00
58209;BME280;44006;52.028;4.696;2022-08-03T02:41:07;101400.16;;;19.75;100.00
58209;BME280;44006;52.028;4.696;2022-08-03T02:43:35;101392.53;;;19.70;100.00
58209;BME280;44006;52.028;4.696;2022-08-03T02:46:01;101397.66;;;19.67;100.00
58209;BME280;44006;52.028;4.696;2022-08-03T02:48:28;101397.03;;;19.65;100.00
58209;BME280;44006;52.028;4.696;2022-08-03T02:50:57;101397.66;;;19.67;100.00
58209;BME280;44006;52.028;4.696;2022-08-03T02:53:25;101392.59;;;19.63;100.00
58209;BME280;44006;52.028;4.696;2022-08-03T02:55:52;101398.97;;;19.64;100.00
58209;BME280;44006;52.028;4.696;2022-08-03T02:58:19;101390.06;;;19.62;100.00
58209;BME280;44006;52.028;4.696;2022-08-03T03:00:46;101393.91;;;19.61;100.00
58209;BME280;44006;52.028;4.696;2022-08-03T03:03:13;101395.56;;;19.62;100.00
58209;BME280;44006;52.028;4.696;2022-08-03T03:05:39;101394.75;;;19.61;100.00
58209;BME280;44006;52.028;4.696;2022-08-03T03:08:07;101392.50;;;19.52;100.00
58209;BME280;44006;52.028;4.696;2022-08-03T03:10:32;101385.53;;;19.49;100.00
58209;BME280;44006;52.028;4.696;2022-08-03T03:12:59;101382.34;;;19.52;100.00
58209;BME280;44006;52.028;4.696;2022-08-03T03:15:27;101390.22;;;19.49;100.00
58209;BME280;44006;52.028;4.696;2022-08-03T03:17:53;101376.44;;;19.49;100.00
58209;BME280;44006;52.028;4.696;2022-08-03T03:20:20;101388.75;;;19.46;100.00
58209;BME280;44006;52.028;4.696;2022-08-03T03:22:47;101388.53;;;19.48;100.00
58209;BME280;44006;52.028;4.696;2022-08-03T03:25:13;101383.47;;;19.44;100.00
58209;BME280;44006;52.028;4.696;2022-08-03T03:27:39;101387.91;;;19.46;100.00
58209;BME280;44006;52.028;4.696;2022-08-03T03:30:05;101387.91;;;19.46;100.00
58209;BME280;44006;52.028;4.696;2022-08-03T03:32:31;101389.84;;;19.45;100.00
58209;BME280;44006;52.028;4.696;2022-08-03T03:34:57;101391.56;;;19.39;100.00
58209;BME280;44006;52.028;4.696;2022-08-03T03:37:23;101389.28;;;19.36;100.00
58209;BME280;44006;52.028;4.696;2022-08-03T03:39:49;101389.75;;;19.33;100.00
58209;BME280;44006;52.028;4.696;2022-08-03T03:42:14;101384.66;;;19.30;100.00
58209;BME280;44006;52.028;4.696;2022-08-03T03:44:40;101383.63;;;19.31;100.00
58209;BME280;44006;52.028;4.696;2022-08-03T03:47:05;101382.63;;;19.26;100.00
58209;BME280;44006;52.028;4.696;2022-08-03T03:49:31;101385.97;;;19.28;100.00
58209;BME280;44006;52.028;4.696;2022-08-03T03:51:57;101388.75;;;19.28;100.00
58209;BME280;44006;52.028;4.696;2022-08-03T03:54:23;101391.72;;;19.26;100.00
58209;BME280;44006;52.028;4.696;2022-08-03T03:56:48;101387.72;;;19.22;100.00
58209;BME280;44006;52.028;4.696;2022-08-03T03:59:14;101398.09;;;19.20;100.00
58209;BME280;44006;52.028;4.696;2022-08-03T04:01:39;101405.75;;;19.18;100.00
58209;BME280;44006;52.028;4.696;2022-08-03T04:04:05;101402.41;;;19.16;100.00
58209;BME280;44006;52.028;4.696;2022-08-03T04:06:49;101404.09;;;19.17;100.00
58209;BME280;44006;52.028;4.696;2022-08-03T04:09:47;101399.63;;;19.16;100.00
58209;BME280;44006;52.028;4.696;2022-08-03T04:12:33;101398.59;;;19.17;100.00
58209;BME280;44006;52.028;4.696;2022-08-03T04:15:01;101397.09;;;19.14;100.00
58209;BME280;44006;52.028;4.696;2022-08-03T04:17:27;101402.00;;;19.12;100.00
58209;BME280;44006;52.028;4.696;2022-08-03T04:19:55;101398.63;;;19.10;100.00
58209;BME280;44006;52.028;4.696;2022-08-03T04:22:25;101403.28;;;19.10;100.00
58209;BME280;44006;52.028;4.696;2022-08-03T04:24:56;101397.16;;;19.08;100.00
58209;BME280;44006;52.028;4.696;2022-08-03T04:27:26;101396.09;;;19.09;100.00
58209;BME280;44006;52.028;4.696;2022-08-03T04:29:54;101395.03;;;19.10;100.00
58209;BME280;44006;52.028;4.696;2022-08-03T04:32:22;101392.09;;;19.04;100.00
58209;BME280;44006;52.028;4.696;2022-08-03T04:34:51;101395.72;;;19.05;100.00
58209;BME280;44006;52.028;4.696;2022-08-03T04:37:40;101397.00;;;19.02;100.00
58209;BME280;44006;52.028;4.696;2022-08-03T04:40:17;101404.81;;;19.05;100.00
58209;BME280;44006;52.028;4.696;2022-08-03T04:42:44;101395.31;;;19.01;100.00
58209;BME280;44006;52.028;4.696;2022-08-03T04:45:12;101398.69;;;19.03;100.00
58209;BME280;44006;52.028;4.696;2022-08-03T04:47:39;101401.00;;;19.07;100.00
58209;BME280;44006;52.028;4.696;2022-08-03T04:50:05;101408.88;;;19.03;100.00
58209;BME280;44006;52.028;4.696;2022-08-03T04:52:33;101410.97;;;19.01;100.00
58209;BME280;44006;52.028;4.696;2022-08-03T04:54:59;101405.72;;;18.99;100.00
58209;BME280;44006;52.028;4.696;2022-08-03T04:57:24;101401.06;;;19.00;100.00
58209;BME280;44006;52.028;4.696;2022-08-03T04:59:51;101407.38;;;19.00;100.00
58209;BME280;44006;52.028;4.696;2022-08-03T05:02:19;101403.81;;;19.00;100.00
58209;BME280;44006;52.028;4.696;2022-08-03T05:04:45;101417.56;;;19.00;100.00
58209;BME280;44006;52.028;4.696;2022-08-03T05:07:14;101416.72;;;18.99;100.00
58209;BME280;44006;52.028;4.696;2022-08-03T05:09:40;101411.44;;;18.98;100.00
58209;BME280;44006;52.028;4.696;2022-08-03T05:12:06;101422.25;;;18.99;100.00
58209;BME280;44006;52.028;4.696;2022-08-03T05:14:32;101417.34;;;19.01;100.00
58209;BME280;44006;52.028;4.696;2022-08-03T05:16:58;101417.56;;;19.00;100.00
58209;BME280;44006;52.028;4.696;2022-08-03T05:19:24;101422.69;;;18.96;100.00
58209;BME280;44006;52.028;4.696;2022-08-03T05:21:50;101425.81;;;19.00;100.00
58209;BME280;44006;52.028;4.696;2022-08-03T05:24:15;101436.00;;;18.99;100.00
58209;BME280;44006;52.028;4.696;2022-08-03T05:26:41;101434.69;;;19.02;100.00
58209;BME280;44006;52.028;4.696;2022-08-03T05:29:06;101437.06;;;18.98;100.00
58209;BME280;44006;52.028;4.696;2022-08-03T05:31:32;101440.44;;;19.00;100.00
58209;BME280;44006;52.028;4.696;2022-08-03T05:33:57;101442.13;;;19.01;100.00
58209;BME280;44006;52.028;4.696;2022-08-03T05:36:22;101435.94;;;19.06;100.00
58209;BME280;44006;52.028;4.696;2022-08-03T05:38:48;101433.41;;;19.04;100.00
58209;BME280;44006;52.028;4.696;2022-08-03T05:41:13;101435.53;;;19.02;100.00
58209;BME280;44006;52.028;4.696;2022-08-03T05:43:38;101439.78;;;19.05;100.00
58209;BME280;44006;52.028;4.696;2022-08-03T05:46:04;101434.66;;;19.09;100.00
58209;BME280;44006;52.028;4.696;2022-08-03T05:48:29;101442.69;;;19.10;100.00
58209;BME280;44006;52.028;4.696;2022-08-03T05:50:54;101439.78;;;19.05;100.00
58209;BME280;44006;52.028;4.696;2022-08-03T05:53:20;101431.91;;;19.09;100.00
58209;BME280;44006;52.028;4.696;2022-08-03T05:55:45;101435.66;;;19.14;100.00
58209;BME280;44006;52.028;4.696;2022-08-03T05:58:11;101435.00;;;19.19;100.00
58209;BME280;44006;52.028;4.696;2022-08-03T06:00:36;101435.59;;;19.21;100.00
58209;BME280;44006;52.028;4.696;2022-08-03T06:03:01;101441.72;;;19.23;100.00
58209;BME280;44006;52.028;4.696;2022-08-03T06:05:27;101437.28;;;19.22;100.00
58209;BME280;44006;52.028;4.696;2022-08-03T06:07:53;101425.59;;;19.27;100.00
58209;BME280;44006;52.028;4.696;2022-08-03T06:10:19;101435.94;;;19.31;100.00
58209;BME280;44006;52.028;4.696;2022-08-03T06:12:44;101432.88;;;19.39;100.00
58209;BME280;44006;52.028;4.696;2022-08-03T06:15:14;101433.44;;;19.48;100.00
58209;BME280;44006;52.028;4.696;2022-08-03T06:17:58;101434.47;;;19.54;100.00
58209;BME280;44006;52.028;4.696;2022-08-03T06:20:24;101444.78;;;19.58;100.00
58209;BME280;44006;52.028;4.696;2022-08-03T06:22:49;101433.16;;;19.56;100.00
58209;BME280;44006;52.028;4.696;2022-08-03T06:25:15;101443.72;;;19.59;100.00
58209;BME280;44006;52.028;4.696;2022-08-03T06:27:42;101436.31;;;19.60;100.00
58209;BME280;44006;52.028;4.696;2022-08-03T06:30:09;101432.66;;;19.66;100.00
58209;BME280;44006;52.028;4.696;2022-08-03T06:32:39;101437.06;;;19.67;100.00
58209;BME280;44006;52.028;4.696;2022-08-03T06:35:05;101435.13;;;19.74;100.00
58209;BME280;44006;52.028;4.696;2022-08-03T06:37:41;101440.72;;;19.86;100.00
58209;BME280;44006;52.028;4.696;2022-08-03T06:40:07;101437.91;;;19.93;100.00
58209;BME280;44006;52.028;4.696;2022-08-03T06:42:33;101439.75;;;19.99;100.00
58209;BME280;44006;52.028;4.696;2022-08-03T06:44:58;101451.59;;;19.99;100.00
58209;BME280;44006;52.028;4.696;2022-08-03T06:47:23;101451.91;;;20.10;100.00
58209;BME280;44006;52.028;4.696;2022-08-03T06:49:49;101459.41;;;20.21;100.00
58209;BME280;44006;52.028;4.696;2022-08-03T06:52:14;101453.56;;;20.29;100.00
58209;BME280;44006;52.028;4.696;2022-08-03T06:54:39;101463.59;;;20.42;100.00
58209;BME280;44006;52.028;4.696;2022-08-03T06:57:06;101449.19;;;20.40;100.00
58209;BME280;44006;52.028;4.696;2022-08-03T06:59:32;101454.06;;;20.56;100.00
58209;BME280;44006;52.028;4.696;2022-08-03T07:01:57;101461.97;;;20.53;100.00
58209;BME280;44006;52.028;4.696;2022-08-03T07:04:23;101455.84;;;20.51;100.00
58209;BME280;44006;52.028;4.696;2022-08-03T07:06:48;101459.47;;;20.51;100.00
58209;BME280;44006;52.028;4.696;2022-08-03T07:09:13;101455.09;;;20.62;100.00
58209;BME280;44006;52.028;4.696;2022-08-03T07:11:39;101463.28;;;20.69;100.00
58209;BME280;44006;52.028;4.696;2022-08-03T07:14:05;101457.28;;;20.72;100.00
58209;BME280;44006;52.028;4.696;2022-08-03T07:16:31;101454.31;;;20.85;100.00
58209;BME280;44006;52.028;4.696;2022-08-03T07:18:56;101469.09;;;20.91;100.00
58209;BME280;44006;52.028;4.696;2022-08-03T07:21:22;101472.59;;;20.86;100.00
58209;BME280;44006;52.028;4.696;2022-08-03T07:23:48;101476.50;;;20.79;100.00
58209;BME280;44006;52.028;4.696;2022-08-03T07:26:13;101478.72;;;20.88;100.00
58209;BME280;44006;52.028;4.696;2022-08-03T07:28:38;101482.25;;;21.19;100.00
58209;BME280;44006;52.028;4.696;2022-08-03T07:31:04;101478.19;;;21.22;100.00
58209;BME280;44006;52.028;4.696;2022-08-03T07:33:29;101481.22;;;21.32;100.00
58209;BME280;44006;52.028;4.696;2022-08-03T07:35:55;101488.13;;;21.53;99.96
58209;BME280;44006;52.028;4.696;2022-08-03T07:38:20;101496.28;;;21.48;99.51
58209;BME280;44006;52.028;4.696;2022-08-03T07:40:45;101490.69;;;21.36;99.58
58209;BME280;44006;52.028;4.696;2022-08-03T07:43:12;101499.31;;;21.58;99.31
58209;BME280;44006;52.028;4.696;2022-08-03T07:45:37;101492.09;;;21.69;99.00
58209;BME280;44006;52.028;4.696;2022-08-03T07:48:02;101500.88;;;21.78;98.42
58209;BME280;44006;52.028;4.696;2022-08-03T07:50:28;101499.53;;;21.80;97.54
58209;BME280;44006;52.028;4.696;2022-08-03T07:52:54;101493.75;;;21.82;98.15
58209;BME280;44006;52.028;4.696;2022-08-03T07:55:24;101501.31;;;22.10;97.61
58209;BME280;44006;52.028;4.696;2022-08-03T08:00:27;101501.69;;;22.02;97.58
58209;BME280;44006;52.028;4.696;2022-08-03T08:02:52;101502.75;;;22.13;96.21
58209;BME280;44006;52.028;4.696;2022-08-03T08:05:18;101502.75;;;22.13;95.74
58209;BME280;44006;52.028;4.696;2022-08-03T08:07:43;101501.06;;;22.12;95.45
58209;BME280;44006;52.028;4.696;2022-08-03T08:10:09;101505.72;;;22.35;95.72
58209;BME280;44006;52.028;4.696;2022-08-03T08:12:35;101510.03;;;22.54;94.78
58209;BME280;44006;52.028;4.696;2022-08-03T08:15:01;101505.53;;;22.65;93.42
58209;BME280;44006;52.028;4.696;2022-08-03T08:17:26;101505.09;;;22.56;93.16
58209;BME280;44006;52.028;4.696;2022-08-03T08:19:51;101506.81;;;22.46;92.94
58209;BME280;44006;52.028;4.696;2022-08-03T08:22:17;101510.19;;;22.48;93.53
58209;BME280;44006;52.028;4.696;2022-08-03T08:24:43;101509.19;;;22.83;93.87
58209;BME280;44006;52.028;4.696;2022-08-03T08:27:09;101501.38;;;23.08;92.58
58209;BME280;44006;52.028;4.696;2022-08-03T08:29:36;101504.84;;;23.15;92.48
58209;BME280;44006;52.028;4.696;2022-08-03T08:32:02;101507.88;;;23.31;89.91
58209;BME280;44006;52.028;4.696;2022-08-03T08:34:27;101512.44;;;23.37;90.57
58209;BME280;44006;52.028;4.696;2022-08-03T08:36:52;101509.03;;;23.18;90.66
58209;BME280;44006;52.028;4.696;2022-08-03T08:39:18;101503.38;;;23.42;91.47
58209;BME280;44006;52.028;4.696;2022-08-03T08:41:43;101509.47;;;23.61;91.06
58209;BME280;44006;52.028;4.696;2022-08-03T08:44:09;101503.50;;;23.69;90.99
58209;BME280;44006;52.028;4.696;2022-08-03T08:46:37;101512.25;;;23.94;89.64
58209;BME280;44006;52.028;4.696;2022-08-03T08:49:03;101501.00;;;23.84;88.06
58209;BME280;44006;52.028;4.696;2022-08-03T08:51:30;101497.88;;;23.98;89.02
58209;BME280;44006;52.028;4.696;2022-08-03T08:54:00;101496.00;;;24.03;88.55
58209;BME280;44006;52.028;4.696;2022-08-03T08:56:27;101497.34;;;24.01;87.60
58209;BME280;44006;52.028;4.696;2022-08-03T08:58:57;101499.81;;;24.19;87.39
58209;BME280;44006;52.028;4.696;2022-08-03T09:01:23;101500.59;;;24.37;87.26
58209;BME280;44006;52.028;4.696;2022-08-03T09:03:48;101507.78;;;24.55;87.17
58209;BME280;44006;52.028;4.696;2022-08-03T09:06:14;101508.28;;;24.74;85.80
58209;BME280;44006;52.028;4.696;2022-08-03T09:08:40;101505.88;;;24.55;84.93
58209;BME280;44006;52.028;4.696;2022-08-03T09:11:06;101511.47;;;24.60;86.13
58209;BME280;44006;52.028;4.696;2022-08-03T09:13:34;101513.28;;;24.72;86.06
58209;BME280;44006;52.028;4.696;2022-08-03T09:16:19;101515.78;;;24.73;84.48
58209;BME280;44006;52.028;4.696;2022-08-03T09:18:51;101522.69;;;24.71;86.05
58209;BME280;44006;52.028;4.696;2022-08-03T09:21:23;101516.25;;;24.65;86.25
58209;BME280;44006;52.028;4.696;2022-08-03T09:23:52;101518.63;;;24.78;85.71
58209;BME280;44006;52.028;4.696;2022-08-03T09:26:28;101528.19;;;24.65;85.21
58209;BME280;44006;52.028;4.696;2022-08-03T09:31:34;101529.59;;;24.90;82.53
58209;BME280;44006;52.028;4.696;2022-08-03T09:34:02;101524.03;;;25.17;81.61
58209;BME280;44006;52.028;4.696;2022-08-03T09:36:46;101527.75;;;25.28;82.73
58209;BME280;44006;52.028;4.696;2022-08-03T09:39:15;101527.16;;;25.53;80.19
58209;BME280;44006;52.028;4.696;2022-08-03T09:41:42;101531.81;;;25.80;80.45
58209;BME280;44006;52.028;4.696;2022-08-03T09:44:08;101538.25;;;25.86;81.20
58209;BME280;44006;52.028;4.696;2022-08-03T09:46:47;101529.81;;;25.75;82.24
58209;BME280;44006;52.028;4.696;2022-08-03T09:49:14;101517.94;;;25.20;82.50
58209;BME280;44006;52.028;4.696;2022-08-03T09:51:39;101533.50;;;25.81;81.93
58209;BME280;44006;52.028;4.696;2022-08-03T09:54:05;101519.53;;;26.13;79.53
58209;BME280;44006;52.028;4.696;2022-08-03T09:56:46;101531.53;;;25.81;79.97
58209;BME280;44006;52.028;4.696;2022-08-03T09:59:13;101529.06;;;26.28;76.96
58209;BME280;44006;52.028;4.696;2022-08-03T10:01:47;101520.81;;;25.95;75.10
58209;BME280;44006;52.028;4.696;2022-08-03T10:04:14;101527.00;;;25.70;76.39
58209;BME280;44006;52.028;4.696;2022-08-03T10:06:45;101525.34;;;26.12;77.94
58209;BME280;44006;52.028;4.696;2022-08-03T10:09:25;101521.28;;;26.30;75.73
58209;BME280;44006;52.028;4.696;2022-08-03T10:11:51;101520.47;;;26.34;75.60
58209;BME280;44006;52.028;4.696;2022-08-03T10:14:16;101517.09;;;26.27;78.67
58209;BME280;44006;52.028;4.696;2022-08-03T10:16:46;101514.22;;;26.12;74.75
58209;BME280;44006;52.028;4.696;2022-08-03T10:19:11;101511.63;;;26.53;76.75
58209;BME280;44006;52.028;4.696;2022-08-03T10:21:45;101522.22;;;26.61;77.75
58209;BME280;44006;52.028;4.696;2022-08-03T10:24:11;101514.84;;;27.13;75.51
58209;BME280;44006;52.028;4.696;2022-08-03T10:26:40;101523.50;;;27.11;74.26
58209;BME280;44006;52.028;4.696;2022-08-03T10:29:12;101515.41;;;26.94;75.10
58209;BME280;44006;52.028;4.696;2022-08-03T10:31:44;101515.38;;;27.00;75.02
58209;BME280;44006;52.028;4.696;2022-08-03T10:34:17;101511.50;;;27.01;74.68
58209;BME280;44006;52.028;4.696;2022-08-03T10:36:44;101511.63;;;26.53;75.17
58209;BME280;44006;52.028;4.696;2022-08-03T10:39:12;101516.44;;;26.73;75.13
58209;BME280;44006;52.028;4.696;2022-08-03T10:41:40;101506.41;;;26.62;74.49
58209;BME280;44006;52.028;4.696;2022-08-03T10:44:13;101512.88;;;26.88;74.67
58209;BME280;44006;52.028;4.696;2022-08-03T10:46:42;101519.59;;;27.12;73.12
58209;BME280;44006;52.028;4.696;2022-08-03T10:49:11;101520.44;;;27.18;73.55
58209;BME280;44006;52.028;4.696;2022-08-03T10:51:37;101525.19;;;27.23;72.75
58209;BME280;44006;52.028;4.696;2022-08-03T10:54:02;101505.66;;;27.18;73.40
58209;BME280;44006;52.028;4.696;2022-08-03T11:02:10;101504.84;;;27.12;71.27
58209;BME280;44006;52.028;4.696;2022-08-03T11:04:36;101505.38;;;27.04;72.04
58209;BME280;44006;52.028;4.696;2022-08-03T11:09:41;101490.06;;;27.53;72.66
58209;BME280;44006;52.028;4.696;2022-08-03T11:12:30;101501.50;;;27.72;73.06
58209;BME280;44006;52.028;4.696;2022-08-03T11:15:01;101496.22;;;27.44;71.12
58209;BME280;44006;52.028;4.696;2022-08-03T11:17:26;101502.59;;;27.71;66.98
58209;BME280;44006;52.028;4.696;2022-08-03T11:19:52;101495.59;;;27.83;70.76
58209;BME280;44006;52.028;4.696;2022-08-03T11:22:19;101495.31;;;27.85;70.81
58209;BME280;44006;52.028;4.696;2022-08-03T11:27:20;101505.13;;;27.77;69.21
58209;BME280;44006;52.028;4.696;2022-08-03T11:35:13;101482.53;;;27.63;68.34
58209;BME280;44006;52.028;4.696;2022-08-03T11:40:37;101492.53;;;27.95;66.15
58209;BME280;44006;52.028;4.696;2022-08-03T11:43:10;101491.16;;;27.77;69.31
58209;BME280;44006;52.028;4.696;2022-08-03T11:48:38;101496.31;;;28.35;66.97
58209;BME280;44006;52.028;4.696;2022-08-03T11:51:06;101485.72;;;28.27;67.44
58209;BME280;44006;52.028;4.696;2022-08-03T11:53:33;101497.28;;;27.90;70.70
58209;BME280;44006;52.028;4.696;2022-08-03T11:56:00;101495.56;;;28.14;68.47
58209;BME280;44006;52.028;4.696;2022-08-03T11:58:27;101495.59;;;27.94;70.41
58209;BME280;44006;52.028;4.696;2022-08-03T12:01:02;101495.56;;;28.04;70.50
58209;BME280;44006;52.028;4.696;2022-08-03T12:03:31;101491.41;;;28.01;69.51
58209;BME280;44006;52.028;4.696;2022-08-03T12:05:57;101498.63;;;28.13;70.42
58209;BME280;44006;52.028;4.696;2022-08-03T12:10:50;101491.31;;;28.27;66.08
58209;BME280;44006;52.028;4.696;2022-08-03T12:13:17;101492.44;;;28.26;67.83
58209;BME280;44006;52.028;4.696;2022-08-03T12:15:52;101491.31;;;28.27;68.63
58209;BME280;44006;52.028;4.696;2022-08-03T12:18:19;101483.75;;;28.38;67.99
58209;BME280;44006;52.028;4.696;2022-08-03T12:20:47;101488.53;;;28.22;67.04
58209;BME280;44006;52.028;4.696;2022-08-03T12:23:13;101496.88;;;28.32;66.43
58209;BME280;44006;52.028;4.696;2022-08-03T12:25:40;101484.50;;;28.59;65.99
58209;BME280;44006;52.028;4.696;2022-08-03T12:28:24;101492.38;;;28.41;67.12
58209;BME280;44006;52.028;4.696;2022-08-03T12:30:50;101485.56;;;27.87;68.03
58209;BME280;44006;52.028;4.696;2022-08-03T12:33:22;101486.13;;;27.95;69.12
58209;BME280;44006;52.028;4.696;2022-08-03T12:36:07;101487.78;;;27.96;68.47
58209;BME280;44006;52.028;4.696;2022-08-03T12:38:35;101490.34;;;27.77;68.38
58209;BME280;44006;52.028;4.696;2022-08-03T12:41:10;101485.03;;;27.75;67.58
58209;BME280;44006;52.028;4.696;2022-08-03T12:43:48;101478.84;;;27.83;67.84
58209;BME280;44006;52.028;4.696;2022-08-03T12:46:16;101483.94;;;27.56;68.10
58209;BME280;44006;52.028;4.696;2022-08-03T12:48:59;101486.63;;;28.07;67.96
58209;BME280;44006;52.028;4.696;2022-08-03T12:51:25;101482.97;;;28.17;65.97
58209;BME280;44006;52.028;4.696;2022-08-03T12:53:56;101490.00;;;27.88;66.39
58209;BME280;44006;52.028;4.696;2022-08-03T12:56:22;101483.06;;;27.71;66.85
58209;BME280;44006;52.028;4.696;2022-08-03T12:58:47;101490.88;;;27.79;68.89
58209;BME280;44006;52.028;4.696;2022-08-03T13:01:14;101484.97;;;28.01;66.37
58209;BME280;44006;52.028;4.696;2022-08-03T13:03:44;101480.16;;;28.22;66.33
58209;BME280;44006;52.028;4.696;2022-08-03T13:06:14;101476.84;;;28.10;66.34
58209;BME280;44006;52.028;4.696;2022-08-03T13:08:41;101484.13;;;28.00;66.53
58209;BME280;44006;52.028;4.696;2022-08-03T13:11:23;101467.66;;;27.99;65.87
58209;BME280;44006;52.028;4.696;2022-08-03T13:13:50;101477.50;;;27.65;65.97
58209;BME280;44006;52.028;4.696;2022-08-03T13:16:16;101480.22;;;28.12;66.19
58209;BME280;44006;52.028;4.696;2022-08-03T13:18:41;101473.22;;;28.09;65.91
58209;BME280;44006;52.028;4.696;2022-08-03T13:21:06;101481.56;;;28.19;65.92
58209;BME280;44006;52.028;4.696;2022-08-03T13:23:32;101485.41;;;28.34;66.10
58209;BME280;44006;52.028;4.696;2022-08-03T13:25:58;101472.13;;;27.90;68.27
58209;BME280;44006;52.028;4.696;2022-08-03T13:28:23;101466.00;;;27.98;66.42